sensor_id;sensor_type;location;lat;lon;timestamp;temperature;humidity
16521;DHT22;8373;48.110;11.522;2023-01-08T00:00:55;7.10;67.90
16521;DHT22;8373;48.110;11.522;2023-01-08T00:03:23;7.10;67.40
16521;DHT22;8373;48.110;11.522;2023-01-08T00:05:50;7.10;66.90
16521;DHT22;8373;48.110;11.522;2023-01-08T00:08:17;7.10;67.10
16521;DHT22;8373;48.110;11.522;2023-01-08T00:10:44;7.00;67.20
16521;DHT22;8373;48.110;11.522;2023-01-08T00:13:11;7.00;66.90
16521;DHT22;8373;48.110;11.522;2023-01-08T00:15:39;6.90;66.70
16521;DHT22;8373;48.110;11.522;2023-01-08T00:18:06;6.90;66.90
16521;DHT22;8373;48.110;11.522;2023-01-08T00:20:33;6.80;66.70
16521;DHT22;8373;48.110;11.522;2023-01-08T00:23:00;6.70;67.10
16521;DHT22;8373;48.110;11.522;2023-01-08T00:25:27;6.70;67.60
16521;DHT22;8373;48.110;11.522;2023-01-08T00:27:54;6.70;66.80
16521;DHT22;8373;48.110;11.522;2023-01-08T00:30:21;6.50;67.20
16521;DHT22;8373;48.110;11.522;2023-01-08T00:32:49;6.30;67.50
16521;DHT22;8373;48.110;11.522;2023-01-08T00:35:16;6.20;67.90
16521;DHT22;8373;48.110;11.522;2023-01-08T00:37:43;6.10;68.30
16521;DHT22;8373;48.110;11.522;2023-01-08T00:40:13;5.80;68.50
16521;DHT22;8373;48.110;11.522;2023-01-08T00:42:40;5.60;69.60
16521;DHT22;8373;48.110;11.522;2023-01-08T00:45:07;5.50;70.00
16521;DHT22;8373;48.110;11.522;2023-01-08T00:47:34;5.50;70.10
16521;DHT22;8373;48.110;11.522;2023-01-08T00:50:03;5.50;70.10
16521;DHT22;8373;48.110;11.522;2023-01-08T00:52:30;5.50;70.30
16521;DHT22;8373;48.110;11.522;2023-01-08T00:54:57;5.50;70.20
16521;DHT22;8373;48.110;11.522;2023-01-08T00:57:24;5.70;70.30
16521;DHT22;8373;48.110;11.522;2023-01-08T00:59:51;5.80;69.60
16521;DHT22;8373;48.110;11.522;2023-01-08T01:02:18;5.70;69.20
16521;DHT22;8373;48.110;11.522;2023-01-08T01:04:44;5.80;69.20
16521;DHT22;8373;48.110;11.522;2023-01-08T01:07:13;5.90;69.40
16521;DHT22;8373;48.110;11.522;2023-01-08T01:09:40;6.10;69.30
16521;DHT22;8373;48.110;11.522;2023-01-08T01:12:07;6.20;68.80
16521;DHT22;8373;48.110;11.522;2023-01-08T01:14:36;6.40;68.50
16521;DHT22;8373;48.110;11.522;2023-01-08T01:17:03;6.40;67.50
16521;DHT22;8373;48.110;11.522;2023-01-08T01:19:30;6.50;66.90
16521;DHT22;8373;48.110;11.522;2023-01-08T01:21:57;6.60;66.50
16521;DHT22;8373;48.110;11.522;2023-01-08T01:24:25;6.60;66.10
16521;DHT22;8373;48.110;11.522;2023-01-08T01:26:52;6.70;65.70
16521;DHT22;8373;48.110;11.522;2023-01-08T01:29:20;6.70;65.70
16521;DHT22;8373;48.110;11.522;2023-01-08T01:31:47;6.80;65.50
16521;DHT22;8373;48.110;11.522;2023-01-08T01:34:14;6.90;65.10
16521;DHT22;8373;48.110;11.522;2023-01-08T01:36:41;6.90;65.00
16521;DHT22;8373;48.110;11.522;2023-01-08T01:39:08;6.90;64.90
16521;DHT22;8373;48.110;11.522;2023-01-08T01:41:38;6.80;64.40
16521;DHT22;8373;48.110;11.522;2023-01-08T01:44:32;6.60;64.40
16521;DHT22;8373;48.110;11.522;2023-01-08T01:47:00;6.50;65.10
16521;DHT22;8373;48.110;11.522;2023-01-08T01:49:28;6.50;65.60
16521;DHT22;8373;48.110;11.522;2023-01-08T01:51:57;6.60;65.80
16521;DHT22;8373;48.110;11.522;2023-01-08T01:54:27;6.70;65.70
16521;DHT22;8373;48.110;11.522;2023-01-08T01:56:57;6.70;65.20
16521;DHT22;8373;48.110;11.522;2023-01-08T01:59:25;6.60;64.90
16521;DHT22;8373;48.110;11.522;2023-01-08T02:01:53;6.50;65.10
16521;DHT22;8373;48.110;11.522;2023-01-08T02:04:21;6.50;65.50
16521;DHT22;8373;48.110;11.522;2023-01-08T02:06:53;6.60;65.70
16521;DHT22;8373;48.110;11.522;2023-01-08T02:09:32;6.50;65.50
16521;DHT22;8373;48.110;11.522;2023-01-08T02:12:06;6.50;65.30
16521;DHT22;8373;48.110;11.522;2023-01-08T02:14:59;6.60;65.80
16521;DHT22;8373;48.110;11.522;2023-01-08T02:17:35;6.60;65.90
16521;DHT22;8373;48.110;11.522;2023-01-08T02:20:08;6.70;65.80
16521;DHT22;8373;48.110;11.522;2023-01-08T02:22:45;6.70;65.50
16521;DHT22;8373;48.110;11.522;2023-01-08T02:25:21;6.70;65.20
16521;DHT22;8373;48.110;11.522;2023-01-08T02:27:56;6.70;65.20
16521;DHT22;8373;48.110;11.522;2023-01-08T02:30:26;6.70;65.20
16521;DHT22;8373;48.110;11.522;2023-01-08T02:32:53;6.60;65.10
16521;DHT22;8373;48.110;11.522;2023-01-08T02:35:20;6.60;65.30
16521;DHT22;8373;48.110;11.522;2023-01-08T02:37:47;6.60;65.80
16521;DHT22;8373;48.110;11.522;2023-01-08T02:40:19;6.60;66.10
16521;DHT22;8373;48.110;11.522;2023-01-08T02:42:54;6.60;65.80
16521;DHT22;8373;48.110;11.522;2023-01-08T02:45:36;6.60;65.70
16521;DHT22;8373;48.110;11.522;2023-01-08T02:48:09;6.50;66.10
16521;DHT22;8373;48.110;11.522;2023-01-08T02:50:39;6.60;66.00
16521;DHT22;8373;48.110;11.522;2023-01-08T02:53:11;6.50;65.80
16521;DHT22;8373;48.110;11.522;2023-01-08T02:55:41;6.50;65.80
16521;DHT22;8373;48.110;11.522;2023-01-08T02:58:10;6.30;65.70
16521;DHT22;8373;48.110;11.522;2023-01-08T03:00:40;6.20;66.10
16521;DHT22;8373;48.110;11.522;2023-01-08T03:03:11;6.10;66.00
16521;DHT22;8373;48.110;11.522;2023-01-08T03:05:41;6.00;66.50
16521;DHT22;8373;48.110;11.522;2023-01-08T03:08:09;5.90;66.90
16521;DHT22;8373;48.110;11.522;2023-01-08T03:10:40;5.90;67.20
16521;DHT22;8373;48.110;11.522;2023-01-08T03:13:10;5.90;67.20
16521;DHT22;8373;48.110;11.522;2023-01-08T03:15:44;5.90;67.30
16521;DHT22;8373;48.110;11.522;2023-01-08T03:18:17;5.90;67.50
16521;DHT22;8373;48.110;11.522;2023-01-08T03:20:45;5.90;67.30
16521;DHT22;8373;48.110;11.522;2023-01-08T03:23:14;5.80;67.20
16521;DHT22;8373;48.110;11.522;2023-01-08T03:25:45;5.90;67.70
16521;DHT22;8373;48.110;11.522;2023-01-08T03:28:16;5.80;67.50
16521;DHT22;8373;48.110;11.522;2023-01-08T03:30:46;5.80;67.60
16521;DHT22;8373;48.110;11.522;2023-01-08T03:33:15;5.80;66.90
16521;DHT22;8373;48.110;11.522;2023-01-08T03:35:47;5.70;67.50
16521;DHT22;8373;48.110;11.522;2023-01-08T03:38:19;5.70;67.60
16521;DHT22;8373;48.110;11.522;2023-01-08T03:40:50;5.70;67.70
16521;DHT22;8373;48.110;11.522;2023-01-08T03:43:18;5.70;67.30
16521;DHT22;8373;48.110;11.522;2023-01-08T03:45:49;5.70;67.20
16521;DHT22;8373;48.110;11.522;2023-01-08T03:48:18;5.70;67.10
16521;DHT22;8373;48.110;11.522;2023-01-08T03:50:46;5.80;66.50
16521;DHT22;8373;48.110;11.522;2023-01-08T03:53:13;5.70;66.00
16521;DHT22;8373;48.110;11.522;2023-01-08T03:55:41;5.60;65.60
16521;DHT22;8373;48.110;11.522;2023-01-08T03:58:08;5.40;65.90
16521;DHT22;8373;48.110;11.522;2023-01-08T04:00:35;5.20;66.40
16521;DHT22;8373;48.110;11.522;2023-01-08T04:03:04;4.90;67.20
16521;DHT22;8373;48.110;11.522;2023-01-08T04:05:31;4.80;68.20
16521;DHT22;8373;48.110;11.522;2023-01-08T04:07:57;4.80;68.70
16521;DHT22;8373;48.110;11.522;2023-01-08T04:10:25;4.80;68.80
16521;DHT22;8373;48.110;11.522;2023-01-08T04:12:52;4.90;69.00
16521;DHT22;8373;48.110;11.522;2023-01-08T04:15:19;4.90;68.80
16521;DHT22;8373;48.110;11.522;2023-01-08T04:17:46;4.80;68.80
16521;DHT22;8373;48.110;11.522;2023-01-08T04:20:14;4.70;68.80
16521;DHT22;8373;48.110;11.522;2023-01-08T04:22:41;4.70;69.30
16521;DHT22;8373;48.110;11.522;2023-01-08T04:25:08;4.80;69.70
16521;DHT22;8373;48.110;11.522;2023-01-08T04:27:35;4.90;69.40
16521;DHT22;8373;48.110;11.522;2023-01-08T04:30:03;5.10;69.40
16521;DHT22;8373;48.110;11.522;2023-01-08T04:32:30;5.20;68.50
16521;DHT22;8373;48.110;11.522;2023-01-08T04:34:57;5.20;67.80
16521;DHT22;8373;48.110;11.522;2023-01-08T04:37:25;5.20;67.80
16521;DHT22;8373;48.110;11.522;2023-01-08T04:39:52;5.10;67.90
16521;DHT22;8373;48.110;11.522;2023-01-08T04:42:19;4.90;68.20
16521;DHT22;8373;48.110;11.522;2023-01-08T04:44:46;4.60;68.80
16521;DHT22;8373;48.110;11.522;2023-01-08T04:47:13;4.50;69.70
16521;DHT22;8373;48.110;11.522;2023-01-08T04:49:40;4.40;71.10
16521;DHT22;8373;48.110;11.522;2023-01-08T04:52:07;4.30;70.70
16521;DHT22;8373;48.110;11.522;2023-01-08T04:54:36;4.40;71.10
16521;DHT22;8373;48.110;11.522;2023-01-08T04:57:03;4.50;71.00
16521;DHT22;8373;48.110;11.522;2023-01-08T04:59:30;4.40;70.60
16521;DHT22;8373;48.110;11.522;2023-01-08T05:01:57;4.40;70.70
16521;DHT22;8373;48.110;11.522;2023-01-08T05:04:24;4.40;70.90
16521;DHT22;8373;48.110;11.522;2023-01-08T05:06:51;4.40;70.80
16521;DHT22;8373;48.110;11.522;2023-01-08T05:09:18;4.60;71.00
16521;DHT22;8373;48.110;11.522;2023-01-08T05:11:46;4.80;70.90
16521;DHT22;8373;48.110;11.522;2023-01-08T05:14:13;5.00;69.80
16521;DHT22;8373;48.110;11.522;2023-01-08T05:16:40;5.00;68.80
16521;DHT22;8373;48.110;11.522;2023-01-08T05:19:07;4.90;68.40
16521;DHT22;8373;48.110;11.522;2023-01-08T05:21:34;5.00;68.80
16521;DHT22;8373;48.110;11.522;2023-01-08T05:24:01;5.10;68.50
16521;DHT22;8373;48.110;11.522;2023-01-08T05:26:28;5.00;68.00
16521;DHT22;8373;48.110;11.522;2023-01-08T05:28:57;5.00;68.60
16521;DHT22;8373;48.110;11.522;2023-01-08T05:31:24;5.20;68.10
16521;DHT22;8373;48.110;11.522;2023-01-08T05:33:51;5.30;68.10
16521;DHT22;8373;48.110;11.522;2023-01-08T05:36:18;5.50;67.90
16521;DHT22;8373;48.110;11.522;2023-01-08T05:38:45;5.60;67.10
16521;DHT22;8373;48.110;11.522;2023-01-08T05:41:11;5.60;66.30
16521;DHT22;8373;48.110;11.522;2023-01-08T05:43:38;5.60;66.00
16521;DHT22;8373;48.110;11.522;2023-01-08T05:46:07;5.40;66.20
16521;DHT22;8373;48.110;11.522;2023-01-08T05:48:34;5.30;66.80
16521;DHT22;8373;48.110;11.522;2023-01-08T05:51:02;5.30;67.10
16521;DHT22;8373;48.110;11.522;2023-01-08T05:53:30;5.40;67.40
16521;DHT22;8373;48.110;11.522;2023-01-08T05:55:58;5.50;67.20
16521;DHT22;8373;48.110;11.522;2023-01-08T05:58:25;5.60;66.60
16521;DHT22;8373;48.110;11.522;2023-01-08T06:00:52;5.60;66.50
16521;DHT22;8373;48.110;11.522;2023-01-08T06:03:21;5.60;66.60
16521;DHT22;8373;48.110;11.522;2023-01-08T06:05:48;5.70;66.70
16521;DHT22;8373;48.110;11.522;2023-01-08T06:08:15;5.80;66.50
16521;DHT22;8373;48.110;11.522;2023-01-08T06:10:42;5.80;66.10
16521;DHT22;8373;48.110;11.522;2023-01-08T06:13:09;5.90;65.80
16521;DHT22;8373;48.110;11.522;2023-01-08T06:15:37;5.90;65.10
16521;DHT22;8373;48.110;11.522;2023-01-08T06:18:04;5.90;64.70
16521;DHT22;8373;48.110;11.522;2023-01-08T06:20:33;6.00;64.50
16521;DHT22;8373;48.110;11.522;2023-01-08T06:23:00;5.90;63.60
16521;DHT22;8373;48.110;11.522;2023-01-08T06:25:27;5.90;63.40
16521;DHT22;8373;48.110;11.522;2023-01-08T06:27:54;6.00;64.00
16521;DHT22;8373;48.110;11.522;2023-01-08T06:30:21;6.00;63.80
16521;DHT22;8373;48.110;11.522;2023-01-08T06:32:48;6.00;63.50
16521;DHT22;8373;48.110;11.522;2023-01-08T06:35:15;6.10;63.40
16521;DHT22;8373;48.110;11.522;2023-01-08T06:37:43;6.10;63.30
16521;DHT22;8373;48.110;11.522;2023-01-08T06:40:11;6.10;62.90
16521;DHT22;8373;48.110;11.522;2023-01-08T06:42:37;6.10;62.30
16521;DHT22;8373;48.110;11.522;2023-01-08T06:45:06;6.10;62.30
16521;DHT22;8373;48.110;11.522;2023-01-08T06:47:33;6.20;62.10
16521;DHT22;8373;48.110;11.522;2023-01-08T06:50:00;6.20;62.40
16521;DHT22;8373;48.110;11.522;2023-01-08T06:52:27;6.20;62.30
16521;DHT22;8373;48.110;11.522;2023-01-08T06:54:55;6.20;62.50
16521;DHT22;8373;48.110;11.522;2023-01-08T06:57:22;6.20;63.00
16521;DHT22;8373;48.110;11.522;2023-01-08T06:59:49;6.20;62.80
16521;DHT22;8373;48.110;11.522;2023-01-08T07:02:17;6.20;62.80
16521;DHT22;8373;48.110;11.522;2023-01-08T07:04:44;6.30;62.50
16521;DHT22;8373;48.110;11.522;2023-01-08T07:07:12;6.30;62.30
16521;DHT22;8373;48.110;11.522;2023-01-08T07:09:39;6.30;62.10
16521;DHT22;8373;48.110;11.522;2023-01-08T07:12:10;6.20;62.10
16521;DHT22;8373;48.110;11.522;2023-01-08T07:14:38;6.20;62.40
16521;DHT22;8373;48.110;11.522;2023-01-08T07:17:05;6.20;62.50
16521;DHT22;8373;48.110;11.522;2023-01-08T07:19:32;6.20;62.50
16521;DHT22;8373;48.110;11.522;2023-01-08T07:22:00;6.30;62.50
16521;DHT22;8373;48.110;11.522;2023-01-08T07:24:27;6.30;62.70
16521;DHT22;8373;48.110;11.522;2023-01-08T07:26:53;6.30;62.80
16521;DHT22;8373;48.110;11.522;2023-01-08T07:29:22;6.30;63.10
16521;DHT22;8373;48.110;11.522;2023-01-08T07:31:49;6.40;63.30
16521;DHT22;8373;48.110;11.522;2023-01-08T07:34:16;6.40;62.80
16521;DHT22;8373;48.110;11.522;2023-01-08T07:36:42;6.40;62.50
16521;DHT22;8373;48.110;11.522;2023-01-08T07:39:09;6.40;62.40
16521;DHT22;8373;48.110;11.522;2023-01-08T07:41:36;6.30;62.20
16521;DHT22;8373;48.110;11.522;2023-01-08T07:44:03;6.40;62.60
16521;DHT22;8373;48.110;11.522;2023-01-08T07:46:32;6.40;62.50
16521;DHT22;8373;48.110;11.522;2023-01-08T07:48:59;6.40;62.40
16521;DHT22;8373;48.110;11.522;2023-01-08T07:51:26;6.40;61.60
16521;DHT22;8373;48.110;11.522;2023-01-08T07:53:54;6.40;61.70
16521;DHT22;8373;48.110;11.522;2023-01-08T07:56:22;6.20;61.60
16521;DHT22;8373;48.110;11.522;2023-01-08T07:58:49;6.10;62.20
16521;DHT22;8373;48.110;11.522;2023-01-08T08:01:16;6.20;62.80
16521;DHT22;8373;48.110;11.522;2023-01-08T08:03:44;6.30;62.60
16521;DHT22;8373;48.110;11.522;2023-01-08T08:06:11;6.40;62.80
16521;DHT22;8373;48.110;11.522;2023-01-08T08:08:38;6.30;62.60
16521;DHT22;8373;48.110;11.522;2023-01-08T08:11:05;6.30;62.70
16521;DHT22;8373;48.110;11.522;2023-01-08T08:13:32;6.10;62.40
16521;DHT22;8373;48.110;11.522;2023-01-08T08:16:03;6.00;62.90
16521;DHT22;8373;48.110;11.522;2023-01-08T08:18:30;5.80;63.40
16521;DHT22;8373;48.110;11.522;2023-01-08T08:20:58;5.70;64.30
16521;DHT22;8373;48.110;11.522;2023-01-08T08:23:25;5.80;65.00
16521;DHT22;8373;48.110;11.522;2023-01-08T08:25:52;5.90;64.70
16521;DHT22;8373;48.110;11.522;2023-01-08T08:28:19;6.00;64.60
16521;DHT22;8373;48.110;11.522;2023-01-08T08:30:46;6.20;64.20
16521;DHT22;8373;48.110;11.522;2023-01-08T08:33:13;6.50;64.50
16521;DHT22;8373;48.110;11.522;2023-01-08T08:35:40;6.60;63.90
16521;DHT22;8373;48.110;11.522;2023-01-08T08:38:14;6.90;63.70
16521;DHT22;8373;48.110;11.522;2023-01-08T08:40:41;7.10;62.90
16521;DHT22;8373;48.110;11.522;2023-01-08T08:43:09;7.30;62.60
16521;DHT22;8373;48.110;11.522;2023-01-08T08:45:36;7.40;61.80
16521;DHT22;8373;48.110;11.522;2023-01-08T08:48:05;7.50;60.60
16521;DHT22;8373;48.110;11.522;2023-01-08T08:50:33;7.50;59.60
16521;DHT22;8373;48.110;11.522;2023-01-08T08:53:01;7.60;59.90
16521;DHT22;8373;48.110;11.522;2023-01-08T08:55:30;7.70;59.70
16521;DHT22;8373;48.110;11.522;2023-01-08T08:58:02;7.80;59.60
16521;DHT22;8373;48.110;11.522;2023-01-08T09:00:30;8.00;59.70
16521;DHT22;8373;48.110;11.522;2023-01-08T09:02:57;8.30;59.20
16521;DHT22;8373;48.110;11.522;2023-01-08T09:05:24;8.40;58.50
16521;DHT22;8373;48.110;11.522;2023-01-08T09:07:51;8.60;58.10
16521;DHT22;8373;48.110;11.522;2023-01-08T09:10:18;8.70;58.00
16521;DHT22;8373;48.110;11.522;2023-01-08T09:12:47;8.80;57.70
16521;DHT22;8373;48.110;11.522;2023-01-08T09:15:14;8.90;57.40
16521;DHT22;8373;48.110;11.522;2023-01-08T09:17:41;8.80;56.70
16521;DHT22;8373;48.110;11.522;2023-01-08T09:20:09;8.80;56.90
16521;DHT22;8373;48.110;11.522;2023-01-08T09:22:36;8.90;57.00
16521;DHT22;8373;48.110;11.522;2023-01-08T09:25:03;8.90;56.70
16521;DHT22;8373;48.110;11.522;2023-01-08T09:27:31;8.70;56.80
16521;DHT22;8373;48.110;11.522;2023-01-08T09:29:59;8.50;57.50
16521;DHT22;8373;48.110;11.522;2023-01-08T09:32:26;8.50;58.10
16521;DHT22;8373;48.110;11.522;2023-01-08T09:34:53;8.60;58.10
16521;DHT22;8373;48.110;11.522;2023-01-08T09:37:20;8.60;57.20
16521;DHT22;8373;48.110;11.522;2023-01-08T09:39:48;8.70;57.40
16521;DHT22;8373;48.110;11.522;2023-01-08T09:42:15;8.70;57.10
16521;DHT22;8373;48.110;11.522;2023-01-08T09:44:45;8.80;57.10
16521;DHT22;8373;48.110;11.522;2023-01-08T09:47:22;9.00;56.80
16521;DHT22;8373;48.110;11.522;2023-01-08T09:49:52;9.50;57.20
16521;DHT22;8373;48.110;11.522;2023-01-08T09:52:20;9.80;55.30
16521;DHT22;8373;48.110;11.522;2023-01-08T09:54:47;9.90;53.80
16521;DHT22;8373;48.110;11.522;2023-01-08T09:57:17;10.10;52.70
16521;DHT22;8373;48.110;11.522;2023-01-08T09:59:46;10.20;52.30
16521;DHT22;8373;48.110;11.522;2023-01-08T10:02:15;10.80;51.30
16521;DHT22;8373;48.110;11.522;2023-01-08T10:04:44;11.20;50.20
16521;DHT22;8373;48.110;11.522;2023-01-08T10:07:16;11.50;49.70
16521;DHT22;8373;48.110;11.522;2023-01-08T10:09:46;11.90;49.00
16521;DHT22;8373;48.110;11.522;2023-01-08T10:12:14;12.20;48.40
16521;DHT22;8373;48.110;11.522;2023-01-08T10:14:44;12.80;47.50
16521;DHT22;8373;48.110;11.522;2023-01-08T10:17:22;12.90;45.80
16521;DHT22;8373;48.110;11.522;2023-01-08T10:19:53;13.40;45.10
16521;DHT22;8373;48.110;11.522;2023-01-08T10:22:21;13.40;44.60
16521;DHT22;8373;48.110;11.522;2023-01-08T10:24:49;13.40;44.50
16521;DHT22;8373;48.110;11.522;2023-01-08T10:27:18;13.30;44.00
16521;DHT22;8373;48.110;11.522;2023-01-08T10:29:45;13.40;44.20
16521;DHT22;8373;48.110;11.522;2023-01-08T10:32:14;13.50;43.80
16521;DHT22;8373;48.110;11.522;2023-01-08T10:34:46;13.50;43.80
16521;DHT22;8373;48.110;11.522;2023-01-08T10:37:26;13.30;44.20
16521;DHT22;8373;48.110;11.522;2023-01-08T10:39:57;13.80;44.60
16521;DHT22;8373;48.110;11.522;2023-01-08T10:42:26;14.40;43.60
16521;DHT22;8373;48.110;11.522;2023-01-08T10:44:58;14.40;42.30
16521;DHT22;8373;48.110;11.522;2023-01-08T10:47:28;14.00;41.80
16521;DHT22;8373;48.110;11.522;2023-01-08T10:49:56;13.70;43.00
16521;DHT22;8373;48.110;11.522;2023-01-08T10:52:28;13.70;43.30
16521;DHT22;8373;48.110;11.522;2023-01-08T10:54:56;13.50;43.40
16521;DHT22;8373;48.110;11.522;2023-01-08T10:57:26;13.20;43.40
16521;DHT22;8373;48.110;11.522;2023-01-08T10:59:53;12.90;43.30
16521;DHT22;8373;48.110;11.522;2023-01-08T11:02:29;12.50;44.00
16521;DHT22;8373;48.110;11.522;2023-01-08T11:04:59;11.80;44.90
16521;DHT22;8373;48.110;11.522;2023-01-08T11:07:28;11.50;45.90
16521;DHT22;8373;48.110;11.522;2023-01-08T11:09:55;11.20;46.70
16521;DHT22;8373;48.110;11.522;2023-01-08T11:12:40;10.90;47.40
16521;DHT22;8373;48.110;11.522;2023-01-08T11:15:26;10.50;48.10
16521;DHT22;8373;48.110;11.522;2023-01-08T11:17:53;10.30;49.00
16521;DHT22;8373;48.110;11.522;2023-01-08T11:20:22;10.20;49.50
16521;DHT22;8373;48.110;11.522;2023-01-08T11:22:51;10.20;50.00
16521;DHT22;8373;48.110;11.522;2023-01-08T11:25:24;10.10;50.30
16521;DHT22;8373;48.110;11.522;2023-01-08T11:27:53;10.10;50.50
16521;DHT22;8373;48.110;11.522;2023-01-08T11:30:23;10.10;50.70
16521;DHT22;8373;48.110;11.522;2023-01-08T11:32:54;9.90;51.80
16521;DHT22;8373;48.110;11.522;2023-01-08T11:35:24;9.90;52.50
16521;DHT22;8373;48.110;11.522;2023-01-08T11:37:55;10.00;51.70
16521;DHT22;8373;48.110;11.522;2023-01-08T11:40:30;10.20;51.70
16521;DHT22;8373;48.110;11.522;2023-01-08T11:43:20;10.30;51.10
16521;DHT22;8373;48.110;11.522;2023-01-08T11:45:59;10.30;50.70
16521;DHT22;8373;48.110;11.522;2023-01-08T11:48:56;10.30;50.50
16521;DHT22;8373;48.110;11.522;2023-01-08T11:51:35;10.20;50.80
16521;DHT22;8373;48.110;11.522;2023-01-08T11:54:19;10.20;51.20
16521;DHT22;8373;48.110;11.522;2023-01-08T11:57:01;10.40;51.00
16521;DHT22;8373;48.110;11.522;2023-01-08T11:59:45;10.40;50.80
16521;DHT22;8373;48.110;11.522;2023-01-08T12:02:21;10.40;50.60
16521;DHT22;8373;48.110;11.522;2023-01-08T12:05:20;10.40;50.60
16521;DHT22;8373;48.110;11.522;2023-01-08T12:07:53;10.30;50.70
16521;DHT22;8373;48.110;11.522;2023-01-08T12:10:29;10.40;51.00
16521;DHT22;8373;48.110;11.522;2023-01-08T12:13:09;10.40;51.30
16521;DHT22;8373;48.110;11.522;2023-01-08T12:15:49;10.10;51.20
16521;DHT22;8373;48.110;11.522;2023-01-08T12:18:25;10.00;51.60
16521;DHT22;8373;48.110;11.522;2023-01-08T12:21:01;10.00;52.20
16521;DHT22;8373;48.110;11.522;2023-01-08T12:23:40;9.90;53.20
16521;DHT22;8373;48.110;11.522;2023-01-08T12:26:18;9.90;53.60
16521;DHT22;8373;48.110;11.522;2023-01-08T12:29:04;9.80;53.80
16521;DHT22;8373;48.110;11.522;2023-01-08T12:34:37;9.70;54.50
16521;DHT22;8373;48.110;11.522;2023-01-08T12:37:14;9.80;54.90
16521;DHT22;8373;48.110;11.522;2023-01-08T12:39:48;10.00;54.10
16521;DHT22;8373;48.110;11.522;2023-01-08T12:42:20;10.10;53.90
16521;DHT22;8373;48.110;11.522;2023-01-08T12:44:51;10.00;53.70
16521;DHT22;8373;48.110;11.522;2023-01-08T12:47:22;9.80;55.10
16521;DHT22;8373;48.110;11.522;2023-01-08T12:49:56;9.70;55.40
16521;DHT22;8373;48.110;11.522;2023-01-08T12:52:29;9.70;55.70
16521;DHT22;8373;48.110;11.522;2023-01-08T12:55:05;9.80;55.70
16521;DHT22;8373;48.110;11.522;2023-01-08T12:57:41;9.60;56.00
16521;DHT22;8373;48.110;11.522;2023-01-08T13:00:17;9.60;56.20
16521;DHT22;8373;48.110;11.522;2023-01-08T13:02:52;9.50;56.00
16521;DHT22;8373;48.110;11.522;2023-01-08T13:05:30;9.50;56.30
16521;DHT22;8373;48.110;11.522;2023-01-08T13:07:59;9.60;56.30
16521;DHT22;8373;48.110;11.522;2023-01-08T13:10:34;9.60;56.40
16521;DHT22;8373;48.110;11.522;2023-01-08T13:13:04;9.70;56.10
16521;DHT22;8373;48.110;11.522;2023-01-08T13:15:32;9.70;55.80
16521;DHT22;8373;48.110;11.522;2023-01-08T13:18:13;9.70;55.80
16521;DHT22;8373;48.110;11.522;2023-01-08T13:20:41;9.80;55.90
16521;DHT22;8373;48.110;11.522;2023-01-08T13:23:22;9.90;56.00
16521;DHT22;8373;48.110;11.522;2023-01-08T13:25:51;10.00;54.70
16521;DHT22;8373;48.110;11.522;2023-01-08T13:28:27;10.00;54.80
16521;DHT22;8373;48.110;11.522;2023-01-08T13:31:07;10.00;55.30
16521;DHT22;8373;48.110;11.522;2023-01-08T13:33:38;10.00;55.50
16521;DHT22;8373;48.110;11.522;2023-01-08T13:36:22;10.10;55.10
16521;DHT22;8373;48.110;11.522;2023-01-08T13:39:05;10.20;55.80
16521;DHT22;8373;48.110;11.522;2023-01-08T13:41:56;10.30;55.20
16521;DHT22;8373;48.110;11.522;2023-01-08T13:44:27;10.30;55.20
16521;DHT22;8373;48.110;11.522;2023-01-08T13:46:57;10.40;55.50
16521;DHT22;8373;48.110;11.522;2023-01-08T13:49:28;10.50;55.50
16521;DHT22;8373;48.110;11.522;2023-01-08T13:51:58;10.50;55.60
16521;DHT22;8373;48.110;11.522;2023-01-08T13:54:31;10.50;54.90
16521;DHT22;8373;48.110;11.522;2023-01-08T13:57:06;10.50;54.40
16521;DHT22;8373;48.110;11.522;2023-01-08T13:59:41;10.40;54.80
16521;DHT22;8373;48.110;11.522;2023-01-08T14:02:24;10.30;55.20
16521;DHT22;8373;48.110;11.522;2023-01-08T14:04:52;10.30;55.40
16521;DHT22;8373;48.110;11.522;2023-01-08T14:07:19;10.40;55.30
16521;DHT22;8373;48.110;11.522;2023-01-08T14:09:48;10.40;55.20
16521;DHT22;8373;48.110;11.522;2023-01-08T14:12:17;10.40;54.90
16521;DHT22;8373;48.110;11.522;2023-01-08T14:14:50;10.50;55.00
16521;DHT22;8373;48.110;11.522;2023-01-08T14:17:20;10.60;54.80
16521;DHT22;8373;48.110;11.522;2023-01-08T14:19:47;10.60;54.70
16521;DHT22;8373;48.110;11.522;2023-01-08T14:22:17;10.60;54.40
16521;DHT22;8373;48.110;11.522;2023-01-08T14:24:47;10.60;54.30
16521;DHT22;8373;48.110;11.522;2023-01-08T14:27:22;10.60;54.10
16521;DHT22;8373;48.110;11.522;2023-01-08T14:29:51;10.60;54.20
16521;DHT22;8373;48.110;11.522;2023-01-08T14:32:19;10.60;54.30
16521;DHT22;8373;48.110;11.522;2023-01-08T14:34:48;10.60;54.20
16521;DHT22;8373;48.110;11.522;2023-01-08T14:37:16;10.60;54.40
16521;DHT22;8373;48.110;11.522;2023-01-08T14:39:44;10.60;54.30
16521;DHT22;8373;48.110;11.522;2023-01-08T14:42:15;10.60;54.40
16521;DHT22;8373;48.110;11.522;2023-01-08T14:45:19;10.70;54.30
16521;DHT22;8373;48.110;11.522;2023-01-08T14:47:48;10.60;54.10
16521;DHT22;8373;48.110;11.522;2023-01-08T14:50:18;10.60;54.40
16521;DHT22;8373;48.110;11.522;2023-01-08T14:52:49;10.60;54.30
16521;DHT22;8373;48.110;11.522;2023-01-08T14:55:18;10.60;54.40
16521;DHT22;8373;48.110;11.522;2023-01-08T14:57:47;10.60;54.50
16521;DHT22;8373;48.110;11.522;2023-01-08T15:00:18;10.70;54.60
16521;DHT22;8373;48.110;11.522;2023-01-08T15:02:48;10.60;54.40
16521;DHT22;8373;48.110;11.522;2023-01-08T15:05:17;10.50;54.70
16521;DHT22;8373;48.110;11.522;2023-01-08T15:07:58;10.60;55.00
16521;DHT22;8373;48.110;11.522;2023-01-08T15:10:37;10.60;55.10
16521;DHT22;8373;48.110;11.522;2023-01-08T15:13:04;10.60;55.50
16521;DHT22;8373;48.110;11.522;2023-01-08T15:15:39;10.70;55.50
16521;DHT22;8373;48.110;11.522;2023-01-08T15:18:13;10.70;55.30
16521;DHT22;8373;48.110;11.522;2023-01-08T15:20:43;10.70;55.10
16521;DHT22;8373;48.110;11.522;2023-01-08T15:23:25;10.80;55.20
16521;DHT22;8373;48.110;11.522;2023-01-08T15:25:53;10.80;55.40
16521;DHT22;8373;48.110;11.522;2023-01-08T15:28:21;10.80;55.60
16521;DHT22;8373;48.110;11.522;2023-01-08T15:30:51;10.80;55.80
16521;DHT22;8373;48.110;11.522;2023-01-08T15:33:20;10.80;55.70
16521;DHT22;8373;48.110;11.522;2023-01-08T15:35:48;10.70;55.40
16521;DHT22;8373;48.110;11.522;2023-01-08T15:38:15;10.70;55.70
16521;DHT22;8373;48.110;11.522;2023-01-08T15:40:42;10.70;55.90
16521;DHT22;8373;48.110;11.522;2023-01-08T15:43:13;10.70;56.10
16521;DHT22;8373;48.110;11.522;2023-01-08T15:45:40;10.60;56.10
16521;DHT22;8373;48.110;11.522;2023-01-08T15:48:09;10.60;56.30
16521;DHT22;8373;48.110;11.522;2023-01-08T15:50:38;10.60;56.50
16521;DHT22;8373;48.110;11.522;2023-01-08T15:53:09;10.50;56.50
16521;DHT22;8373;48.110;11.522;2023-01-08T15:55:38;10.40;56.50
16521;DHT22;8373;48.110;11.522;2023-01-08T15:58:09;10.40;56.70
16521;DHT22;8373;48.110;11.522;2023-01-08T16:00:37;10.40;57.00
16521;DHT22;8373;48.110;11.522;2023-01-08T16:03:04;10.40;56.90